sensor_id;sensor_type;location;lat;lon;timestamp;pressure;altitude;pressure_sealevel;temperature
53667;BMP280;39568;51.026;5.468;2022-07-01T00:01:30;100833.16;;;13.05
53667;BMP280;39568;51.026;5.468;2022-07-01T00:03:57;100823.97;;;13.01
53667;BMP280;39568;51.026;5.468;2022-07-01T00:06:25;100818.63;;;13.01
53667;BMP280;39568;51.026;5.468;2022-07-01T00:08:54;100833.25;;;12.94
53667;BMP280;39568;51.026;5.468;2022-07-01T00:11:22;100833.31;;;12.83
53667;BMP280;39568;51.026;5.468;2022-07-01T00:13:49;100812.16;;;12.91
53667;BMP280;39568;51.026;5.468;2022-07-01T00:16:17;100806.63;;;12.83
53667;BMP280;39568;51.026;5.468;2022-07-01T00:18:44;100797.47;;;12.73
53667;BMP280;39568;51.026;5.468;2022-07-01T00:21:11;100793.41;;;12.66
53667;BMP280;39568;51.026;5.468;2022-07-01T00:23:39;100795.34;;;12.66
53667;BMP280;39568;51.026;5.468;2022-07-01T00:26:05;100789.59;;;12.56
53667;BMP280;39568;51.026;5.468;2022-07-01T00:28:32;100780.59;;;12.59
53667;BMP280;39568;51.026;5.468;2022-07-01T00:31:00;100768.50;;;12.53
53667;BMP280;39568;51.026;5.468;2022-07-01T00:33:27;100779.66;;;12.51
53667;BMP280;39568;51.026;5.468;2022-07-01T00:35:53;100793.25;;;12.48
53667;BMP280;39568;51.026;5.468;2022-07-01T00:38:20;100796.63;;;12.54
53667;BMP280;39568;51.026;5.468;2022-07-01T00:40:53;100792.19;;;12.62
53667;BMP280;39568;51.026;5.468;2022-07-01T00:43:20;100795.19;;;12.53
53667;BMP280;39568;51.026;5.468;2022-07-01T00:45:48;100805.38;;;12.49
53667;BMP280;39568;51.026;5.468;2022-07-01T00:48:15;100823.13;;;12.46
53667;BMP280;39568;51.026;5.468;2022-07-01T00:50:44;100820.22;;;12.44
53667;BMP280;39568;51.026;5.468;2022-07-01T00:53:11;100820.22;;;12.44
53667;BMP280;39568;51.026;5.468;2022-07-01T00:55:37;100831.38;;;12.43
53667;BMP280;39568;51.026;5.468;2022-07-01T00:58:06;100841.06;;;12.46
53667;BMP280;39568;51.026;5.468;2022-07-01T01:00:34;100854.19;;;12.44
53667;BMP280;39568;51.026;5.468;2022-07-01T01:03:01;100850.53;;;12.41
53667;BMP280;39568;51.026;5.468;2022-07-01T01:05:27;100860.19;;;12.55
53667;BMP280;39568;51.026;5.468;2022-07-01T01:07:54;100866.50;;;12.58
53667;BMP280;39568;51.026;5.468;2022-07-01T01:10:21;100859.47;;;12.49
53667;BMP280;39568;51.026;5.468;2022-07-01T01:12:51;100865.84;;;12.41
53667;BMP280;39568;51.026;5.468;2022-07-01T01:15:21;100858.28;;;12.45
53667;BMP280;39568;51.026;5.468;2022-07-01T01:17:48;100853.47;;;12.43
53667;BMP280;39568;51.026;5.468;2022-07-01T01:20:16;100847.84;;;12.52
53667;BMP280;39568;51.026;5.468;2022-07-01T01:22:45;100855.88;;;12.47
53667;BMP280;39568;51.026;5.468;2022-07-01T01:25:13;100862.00;;;12.36
53667;BMP280;39568;51.026;5.468;2022-07-01T01:27:40;100869.75;;;12.34
53667;BMP280;39568;51.026;5.468;2022-07-01T01:30:09;100860.28;;;12.39
53667;BMP280;39568;51.026;5.468;2022-07-01T01:32:37;100861.25;;;12.36
53667;BMP280;39568;51.026;5.468;2022-07-01T01:35:06;100862.22;;;12.38
53667;BMP280;39568;51.026;5.468;2022-07-01T01:37:35;100841.81;;;12.46
53667;BMP280;39568;51.026;5.468;2022-07-01T01:40:07;100850.28;;;12.50
53667;BMP280;39568;51.026;5.468;2022-07-01T01:42:36;100846.84;;;12.55
53667;BMP280;39568;51.026;5.468;2022-07-01T01:45:06;100865.31;;;12.48
53667;BMP280;39568;51.026;5.468;2022-07-01T01:47:33;100857.84;;;12.41
53667;BMP280;39568;51.026;5.468;2022-07-01T01:49:59;100866.81;;;12.38
53667;BMP280;39568;51.026;5.468;2022-07-01T01:52:26;100869.75;;;12.34
53667;BMP280;39568;51.026;5.468;2022-07-01T01:54:53;100863.94;;;12.30
53667;BMP280;39568;51.026;5.468;2022-07-01T01:57:21;100873.41;;;12.31
53667;BMP280;39568;51.026;5.468;2022-07-01T01:59:47;100877.00;;;12.34
53667;BMP280;39568;51.026;5.468;2022-07-01T02:02:14;100879.69;;;12.34
53667;BMP280;39568;51.026;5.468;2022-07-01T02:04:47;100884.56;;;12.30
53667;BMP280;39568;51.026;5.468;2022-07-01T02:07:17;100882.16;;;12.32
53667;BMP280;39568;51.026;5.468;2022-07-01T02:09:43;100890.34;;;12.34
53667;BMP280;39568;51.026;5.468;2022-07-01T02:12:10;100890.34;;;12.34
53667;BMP280;39568;51.026;5.468;2022-07-01T02:14:40;100863.19;;;12.41
53667;BMP280;39568;51.026;5.468;2022-07-01T02:17:07;100827.97;;;12.48
53667;BMP280;39568;51.026;5.468;2022-07-01T02:19:35;100825.78;;;12.52
53667;BMP280;39568;51.026;5.468;2022-07-01T02:22:03;100848.34;;;12.45
53667;BMP280;39568;51.026;5.468;2022-07-01T02:24:32;100858.59;;;12.36
53667;BMP280;39568;51.026;5.468;2022-07-01T02:26:58;100860.28;;;12.39
53667;BMP280;39568;51.026;5.468;2022-07-01T02:29:25;100862.19;;;12.44
53667;BMP280;39568;51.026;5.468;2022-07-01T02:31:53;100869.22;;;12.52
53667;BMP280;39568;51.026;5.468;2022-07-01T02:34:19;100874.06;;;12.48
53667;BMP280;39568;51.026;5.468;2022-07-01T02:36:46;100873.81;;;12.52
53667;BMP280;39568;51.026;5.468;2022-07-01T02:39:13;100875.97;;;12.53
53667;BMP280;39568;51.026;5.468;2022-07-01T02:41:39;100872.41;;;12.40
53667;BMP280;39568;51.026;5.468;2022-07-01T02:44:20;100881.56;;;12.50
53667;BMP280;39568;51.026;5.468;2022-07-01T02:46:49;100880.81;;;12.55
53667;BMP280;39568;51.026;5.468;2022-07-01T02:49:17;100886.16;;;12.55
53667;BMP280;39568;51.026;5.468;2022-07-01T02:51:47;100876.47;;;12.52
53667;BMP280;39568;51.026;5.468;2022-07-01T02:54:14;100873.53;;;12.55
53667;BMP280;39568;51.026;5.468;2022-07-01T02:56:41;100891.25;;;12.58
53667;BMP280;39568;51.026;5.468;2022-07-01T02:59:09;100902.69;;;12.48
53667;BMP280;39568;51.026;5.468;2022-07-01T03:01:39;100901.44;;;12.49
53667;BMP280;39568;51.026;5.468;2022-07-01T03:04:06;100887.63;;;12.50
53667;BMP280;39568;51.026;5.468;2022-07-01T03:06:34;100880.59;;;12.47
53667;BMP280;39568;51.026;5.468;2022-07-01T03:09:00;100870.38;;;12.57
53667;BMP280;39568;51.026;5.468;2022-07-01T03:11:27;100887.38;;;12.54
53667;BMP280;39568;51.026;5.468;2022-07-01T03:13:54;100887.63;;;12.56
53667;BMP280;39568;51.026;5.468;2022-07-01T03:16:20;100899.50;;;12.55
53667;BMP280;39568;51.026;5.468;2022-07-01T03:18:47;100912.63;;;12.47
53667;BMP280;39568;51.026;5.468;2022-07-01T03:21:14;100913.81;;;12.57
53667;BMP280;39568;51.026;5.468;2022-07-01T03:23:42;100913.38;;;12.48
53667;BMP280;39568;51.026;5.468;2022-07-01T03:26:09;100903.16;;;12.52
53667;BMP280;39568;51.026;5.468;2022-07-01T03:28:38;100910.91;;;12.55
53667;BMP280;39568;51.026;5.468;2022-07-01T03:31:06;100936.63;;;12.53
53667;BMP280;39568;51.026;5.468;2022-07-01T03:33:33;100945.88;;;12.52
53667;BMP280;39568;51.026;5.468;2022-07-01T03:36:00;100946.81;;;12.54
53667;BMP280;39568;51.026;5.468;2022-07-01T03:38:30;100948.50;;;12.63
53667;BMP280;39568;51.026;5.468;2022-07-01T03:41:01;100945.31;;;12.64
53667;BMP280;39568;51.026;5.468;2022-07-01T03:43:28;100953.38;;;12.59
53667;BMP280;39568;51.026;5.468;2022-07-01T03:45:55;100947.75;;;12.62
53667;BMP280;39568;51.026;5.468;2022-07-01T03:48:22;100936.56;;;12.69
53667;BMP280;39568;51.026;5.468;2022-07-01T03:50:52;100953.31;;;12.70
53667;BMP280;39568;51.026;5.468;2022-07-01T03:53:18;100942.63;;;12.70
53667;BMP280;39568;51.026;5.468;2022-07-01T03:56:04;100949.22;;;12.63
53667;BMP280;39568;51.026;5.468;2022-07-01T03:58:32;100948.97;;;12.67
53667;BMP280;39568;51.026;5.468;2022-07-01T04:00:58;100949.16;;;12.74
53667;BMP280;39568;51.026;5.468;2022-07-01T04:03:27;100954.78;;;12.71
53667;BMP280;39568;51.026;5.468;2022-07-01T04:05:54;100949.63;;;12.79
53667;BMP280;39568;51.026;5.468;2022-07-01T04:08:20;100946.25;;;12.78
53667;BMP280;39568;51.026;5.468;2022-07-01T04:10:47;100952.25;;;12.84
53667;BMP280;39568;51.026;5.468;2022-07-01T04:13:22;100947.91;;;12.81
53667;BMP280;39568;51.026;5.468;2022-07-01T04:15:49;100950.09;;;12.83
53667;BMP280;39568;51.026;5.468;2022-07-01T04:18:22;100951.56;;;12.84
53667;BMP280;39568;51.026;5.468;2022-07-01T04:20:50;100960.50;;;12.92
53667;BMP280;39568;51.026;5.468;2022-07-01T04:23:31;100962.19;;;12.89
53667;BMP280;39568;51.026;5.468;2022-07-01T04:25:58;100961.91;;;12.98
53667;BMP280;39568;51.026;5.468;2022-07-01T04:28:28;100961.63;;;13.02
53667;BMP280;39568;51.026;5.468;2022-07-01T04:30:57;100965.28;;;13.04
53667;BMP280;39568;51.026;5.468;2022-07-01T04:33:23;100969.22;;;12.92
53667;BMP280;39568;51.026;5.468;2022-07-01T04:35:50;100958.91;;;13.13
53667;BMP280;39568;51.026;5.468;2022-07-01T04:38:18;100947.28;;;13.10
53667;BMP280;39568;51.026;5.468;2022-07-01T04:40:44;100950.59;;;13.22
53667;BMP280;39568;51.026;5.468;2022-07-01T04:43:25;100954.47;;;13.26
53667;BMP280;39568;51.026;5.468;2022-07-01T04:45:53;100965.34;;;13.28
53667;BMP280;39568;51.026;5.468;2022-07-01T04:48:22;100972.16;;;13.29
53667;BMP280;39568;51.026;5.468;2022-07-01T04:50:51;100981.72;;;13.14
53667;BMP280;39568;51.026;5.468;2022-07-01T04:53:17;100971.47;;;13.23
53667;BMP280;39568;51.026;5.468;2022-07-01T04:55:44;100975.28;;;13.33
53667;BMP280;39568;51.026;5.468;2022-07-01T04:58:14;100969.94;;;13.33
53667;BMP280;39568;51.026;5.468;2022-07-01T05:00:43;100963.59;;;13.36
53667;BMP280;39568;51.026;5.468;2022-07-01T05:03:15;100972.06;;;13.40
53667;BMP280;39568;51.026;5.468;2022-07-01T05:05:43;100967.97;;;13.39
53667;BMP280;39568;51.026;5.468;2022-07-01T05:08:10;100981.09;;;13.37
53667;BMP280;39568;51.026;5.468;2022-07-01T05:10:36;100983.31;;;13.33
53667;BMP280;39568;51.026;5.468;2022-07-01T05:13:03;100973.84;;;13.32
53667;BMP280;39568;51.026;5.468;2022-07-01T05:15:30;100975.06;;;13.31
53667;BMP280;39568;51.026;5.468;2022-07-01T05:17:57;100972.84;;;13.35
53667;BMP280;39568;51.026;5.468;2022-07-01T05:20:42;100979.19;;;13.32
53667;BMP280;39568;51.026;5.468;2022-07-01T05:23:29;100973.34;;;13.34
53667;BMP280;39568;51.026;5.468;2022-07-01T05:25:55;100972.91;;;13.30
53667;BMP280;39568;51.026;5.468;2022-07-01T05:28:22;100971.41;;;13.34
53667;BMP280;39568;51.026;5.468;2022-07-01T05:30:49;100964.81;;;13.35
53667;BMP280;39568;51.026;5.468;2022-07-01T05:33:15;100974.28;;;13.42
53667;BMP280;39568;51.026;5.468;2022-07-01T05:35:44;100966.44;;;13.50
53667;BMP280;39568;51.026;5.468;2022-07-01T05:38:11;100971.78;;;13.50
53667;BMP280;39568;51.026;5.468;2022-07-01T05:40:38;100968.94;;;13.66
53667;BMP280;39568;51.026;5.468;2022-07-01T05:43:04;100980.84;;;13.71
53667;BMP280;39568;51.026;5.468;2022-07-01T05:45:31;100966.84;;;13.89
53667;BMP280;39568;51.026;5.468;2022-07-01T05:47:58;100975.75;;;13.97
53667;BMP280;39568;51.026;5.468;2022-07-01T05:50:24;100965.75;;;13.97
53667;BMP280;39568;51.026;5.468;2022-07-01T05:52:54;100971.38;;;14.18
53667;BMP280;39568;51.026;5.468;2022-07-01T05:55:21;100975.84;;;14.10
53667;BMP280;39568;51.026;5.468;2022-07-01T05:57:48;100985.72;;;14.21
53667;BMP280;39568;51.026;5.468;2022-07-01T06:00:20;100988.00;;;14.35
53667;BMP280;39568;51.026;5.468;2022-07-01T06:02:55;100992.06;;;14.60
53667;BMP280;39568;51.026;5.468;2022-07-01T06:05:21;100997.94;;;14.59
53667;BMP280;39568;51.026;5.468;2022-07-01T06:07:50;100991.72;;;14.69
53667;BMP280;39568;51.026;5.468;2022-07-01T06:10:21;100989.66;;;14.75
53667;BMP280;39568;51.026;5.468;2022-07-01T06:12:49;100999.97;;;14.71
53667;BMP280;39568;51.026;5.468;2022-07-01T06:15:19;100996.84;;;14.86
53667;BMP280;39568;51.026;5.468;2022-07-01T06:17:47;101000.91;;;14.93
53667;BMP280;39568;51.026;5.468;2022-07-01T06:20:15;101004.31;;;14.93
53667;BMP280;39568;51.026;5.468;2022-07-01T06:22:42;101002.69;;;15.22
53667;BMP280;39568;51.026;5.468;2022-07-01T06:25:09;101001.84;;;15.45
53667;BMP280;39568;51.026;5.468;2022-07-01T06:27:39;101002.56;;;15.46
53667;BMP280;39568;51.026;5.468;2022-07-01T06:30:07;100999.31;;;15.34
53667;BMP280;39568;51.026;5.468;2022-07-01T06:32:36;100994.63;;;15.40
53667;BMP280;39568;51.026;5.468;2022-07-01T06:35:04;101006.00;;;15.60
53667;BMP280;39568;51.026;5.468;2022-07-01T06:37:31;101005.53;;;15.87
53667;BMP280;39568;51.026;5.468;2022-07-01T06:39:59;101003.03;;;15.89
53667;BMP280;39568;51.026;5.468;2022-07-01T06:42:27;100995.59;;;15.95
53667;BMP280;39568;51.026;5.468;2022-07-01T06:44:55;100996.00;;;15.86
53667;BMP280;39568;51.026;5.468;2022-07-01T06:47:22;100994.91;;;15.95
53667;BMP280;39568;51.026;5.468;2022-07-01T06:49:49;100987.97;;;15.86
53667;BMP280;39568;51.026;5.468;2022-07-01T06:52:20;101000.03;;;15.80
53667;BMP280;39568;51.026;5.468;2022-07-01T06:54:50;101010.66;;;15.72
53667;BMP280;39568;51.026;5.468;2022-07-01T06:57:20;101007.44;;;15.74
53667;BMP280;39568;51.026;5.468;2022-07-01T06:59:47;101018.06;;;15.66
53667;BMP280;39568;51.026;5.468;2022-07-01T07:02:21;101017.59;;;15.81
53667;BMP280;39568;51.026;5.468;2022-07-01T07:04:48;101021.41;;;15.72
53667;BMP280;39568;51.026;5.468;2022-07-01T07:07:16;101024.69;;;15.65
53667;BMP280;39568;51.026;5.468;2022-07-01T07:09:43;101016.22;;;15.74
53667;BMP280;39568;51.026;5.468;2022-07-01T07:12:11;101025.81;;;15.70
53667;BMP280;39568;51.026;5.468;2022-07-01T07:14:38;101029.88;;;15.76
53667;BMP280;39568;51.026;5.468;2022-07-01T07:17:05;101029.25;;;16.09
53667;BMP280;39568;51.026;5.468;2022-07-01T07:19:34;101021.00;;;16.20
53667;BMP280;39568;51.026;5.468;2022-07-01T07:22:04;101018.00;;;16.37
53667;BMP280;39568;51.026;5.468;2022-07-01T07:24:32;101008.16;;;16.53
53667;BMP280;39568;51.026;5.468;2022-07-01T07:27:01;101009.69;;;16.48
53667;BMP280;39568;51.026;5.468;2022-07-01T07:29:28;101022.03;;;16.31
53667;BMP280;39568;51.026;5.468;2022-07-01T07:31:57;101025.09;;;16.61
53667;BMP280;39568;51.026;5.468;2022-07-01T07:34:24;101036.78;;;16.50
53667;BMP280;39568;51.026;5.468;2022-07-01T07:36:52;101044.34;;;16.39
53667;BMP280;39568;51.026;5.468;2022-07-01T07:39:22;101043.72;;;16.46
53667;BMP280;39568;51.026;5.468;2022-07-01T07:41:49;101060.63;;;16.54
53667;BMP280;39568;51.026;5.468;2022-07-01T07:44:16;101054.88;;;16.50
53667;BMP280;39568;51.026;5.468;2022-07-01T07:46:46;101051.97;;;16.48
53667;BMP280;39568;51.026;5.468;2022-07-01T07:49:14;101054.63;;;16.61
53667;BMP280;39568;51.026;5.468;2022-07-01T07:51:47;101042.44;;;16.73
53667;BMP280;39568;51.026;5.468;2022-07-01T07:54:16;101052.44;;;16.59
53667;BMP280;39568;51.026;5.468;2022-07-01T07:56:43;101057.31;;;16.74
53667;BMP280;39568;51.026;5.468;2022-07-01T07:59:10;101059.69;;;16.77
53667;BMP280;39568;51.026;5.468;2022-07-01T08:01:40;101053.94;;;16.94
53667;BMP280;39568;51.026;5.468;2022-07-01T08:04:07;101055.66;;;17.05
53667;BMP280;39568;51.026;5.468;2022-07-01T08:06:34;101057.25;;;17.21
53667;BMP280;39568;51.026;5.468;2022-07-01T08:09:04;101058.09;;;17.16
53667;BMP280;39568;51.026;5.468;2022-07-01T08:11:33;101064.78;;;17.22
53667;BMP280;39568;51.026;5.468;2022-07-01T08:14:00;101053.69;;;17.05
53667;BMP280;39568;51.026;5.468;2022-07-01T08:16:27;101058.81;;;17.16
53667;BMP280;39568;51.026;5.468;2022-07-01T08:18:55;101057.13;;;17.26
53667;BMP280;39568;51.026;5.468;2022-07-01T08:21:22;101050.22;;;17.38
53667;BMP280;39568;51.026;5.468;2022-07-01T08:23:49;101051.41;;;17.09
53667;BMP280;39568;51.026;5.468;2022-07-01T08:26:18;101052.00;;;17.15
53667;BMP280;39568;51.026;5.468;2022-07-01T08:28:47;101041.75;;;17.34
53667;BMP280;39568;51.026;5.468;2022-07-01T08:31:15;101061.97;;;17.48
53667;BMP280;39568;51.026;5.468;2022-07-01T08:33:44;101069.59;;;17.57
53667;BMP280;39568;51.026;5.468;2022-07-01T08:36:13;101063.25;;;17.47
53667;BMP280;39568;51.026;5.468;2022-07-01T08:38:43;101067.50;;;17.43
53667;BMP280;39568;51.026;5.468;2022-07-01T08:41:14;101065.66;;;17.38
53667;BMP280;39568;51.026;5.468;2022-07-01T08:43:43;101091.00;;;17.42
53667;BMP280;39568;51.026;5.468;2022-07-01T08:46:12;101103.47;;;17.32
53667;BMP280;39568;51.026;5.468;2022-07-01T08:48:43;101098.47;;;17.36
53667;BMP280;39568;51.026;5.468;2022-07-01T08:51:11;101084.16;;;17.41
53667;BMP280;39568;51.026;5.468;2022-07-01T08:53:40;101082.63;;;17.53
53667;BMP280;39568;51.026;5.468;2022-07-01T08:56:10;101086.13;;;17.61
53667;BMP280;39568;51.026;5.468;2022-07-01T08:58:54;101076.97;;;17.85
53667;BMP280;39568;51.026;5.468;2022-07-01T09:01:24;101096.53;;;17.86
53667;BMP280;39568;51.026;5.468;2022-07-01T09:03:52;101091.16;;;17.86
53667;BMP280;39568;51.026;5.468;2022-07-01T09:06:23;101089.97;;;17.94
53667;BMP280;39568;51.026;5.468;2022-07-01T09:08:51;101103.53;;;17.89
53667;BMP280;39568;51.026;5.468;2022-07-01T09:11:20;101089.63;;;17.98
53667;BMP280;39568;51.026;5.468;2022-07-01T09:14:05;101105.16;;;18.12
53667;BMP280;39568;51.026;5.468;2022-07-01T09:16:40;101098.75;;;18.23
53667;BMP280;39568;51.026;5.468;2022-07-01T09:19:09;101108.13;;;18.29
53667;BMP280;39568;51.026;5.468;2022-07-01T09:21:38;101108.56;;;18.48
53667;BMP280;39568;51.026;5.468;2022-07-01T09:24:25;101118.91;;;18.65
53667;BMP280;39568;51.026;5.468;2022-07-01T09:26:56;101103.34;;;19.01
53667;BMP280;39568;51.026;5.468;2022-07-01T09:29:28;101121.03;;;19.33
53667;BMP280;39568;51.026;5.468;2022-07-01T09:31:58;101110.78;;;19.54
53667;BMP280;39568;51.026;5.468;2022-07-01T09:34:25;101109.53;;;19.55
53667;BMP280;39568;51.026;5.468;2022-07-01T09:36:53;101124.63;;;19.80
53667;BMP280;39568;51.026;5.468;2022-07-01T09:39:20;101132.00;;;20.89
53667;BMP280;39568;51.026;5.468;2022-07-01T09:41:47;101125.19;;;20.41
53667;BMP280;39568;51.026;5.468;2022-07-01T09:44:15;101127.75;;;21.87
53667;BMP280;39568;51.026;5.468;2022-07-01T09:46:59;101124.78;;;22.27
53667;BMP280;39568;51.026;5.468;2022-07-01T09:49:27;101115.88;;;22.17
53667;BMP280;39568;51.026;5.468;2022-07-01T09:51:53;101123.53;;;22.54
53667;BMP280;39568;51.026;5.468;2022-07-01T09:54:28;101118.34;;;22.75
53667;BMP280;39568;51.026;5.468;2022-07-01T09:56:58;101136.75;;;22.50
53667;BMP280;39568;51.026;5.468;2022-07-01T09:59:25;101134.72;;;21.80
53667;BMP280;39568;51.026;5.468;2022-07-01T10:01:51;101134.19;;;22.26
53667;BMP280;39568;51.026;5.468;2022-07-01T10:04:20;101137.16;;;21.69
53667;BMP280;39568;51.026;5.468;2022-07-01T10:06:56;101147.16;;;21.42
53667;BMP280;39568;51.026;5.468;2022-07-01T10:09:38;101151.75;;;22.08
53667;BMP280;39568;51.026;5.468;2022-07-01T10:12:25;101142.59;;;22.73
53667;BMP280;39568;51.026;5.468;2022-07-01T10:14:56;101164.94;;;22.55
53667;BMP280;39568;51.026;5.468;2022-07-01T10:17:29;101148.28;;;22.68
53667;BMP280;39568;51.026;5.468;2022-07-01T10:20:05;101152.25;;;22.57
53667;BMP280;39568;51.026;5.468;2022-07-01T10:22:35;101163.78;;;22.84
53667;BMP280;39568;51.026;5.468;2022-07-01T10:25:29;101155.06;;;22.50
53667;BMP280;39568;51.026;5.468;2022-07-01T10:28:17;101143.22;;;22.81
53667;BMP280;39568;51.026;5.468;2022-07-01T10:30:55;101152.97;;;22.41
53667;BMP280;39568;51.026;5.468;2022-07-01T10:33:38;101162.28;;;22.21
53667;BMP280;39568;51.026;5.468;2022-07-01T10:36:09;101152.28;;;21.30
53667;BMP280;39568;51.026;5.468;2022-07-01T10:42:00;101151.34;;;20.78
53667;BMP280;39568;51.026;5.468;2022-07-01T10:44:29;101137.00;;;20.68
53667;BMP280;39568;51.026;5.468;2022-07-01T10:47:03;101142.78;;;21.22
53667;BMP280;39568;51.026;5.468;2022-07-01T10:49:51;101156.78;;;21.77
53667;BMP280;39568;51.026;5.468;2022-07-01T10:52:20;101158.78;;;21.52
53667;BMP280;39568;51.026;5.468;2022-07-01T10:54:49;101146.44;;;21.41
53667;BMP280;39568;51.026;5.468;2022-07-01T10:57:25;101130.56;;;22.94
53667;BMP280;39568;51.026;5.468;2022-07-01T10:59:54;101124.44;;;23.67
53667;BMP280;39568;51.026;5.468;2022-07-01T11:02:24;101130.28;;;23.45
53667;BMP280;39568;51.026;5.468;2022-07-01T11:04:52;101132.72;;;23.89
53667;BMP280;39568;51.026;5.468;2022-07-01T11:07:24;101146.28;;;24.17
53667;BMP280;39568;51.026;5.468;2022-07-01T11:09:51;101135.44;;;23.60
53667;BMP280;39568;51.026;5.468;2022-07-01T11:12:20;101119.84;;;23.70
53667;BMP280;39568;51.026;5.468;2022-07-01T11:14:47;101120.13;;;24.03
53667;BMP280;39568;51.026;5.468;2022-07-01T11:17:14;101131.13;;;23.38
53667;BMP280;39568;51.026;5.468;2022-07-01T11:19:42;101117.38;;;23.93
53667;BMP280;39568;51.026;5.468;2022-07-01T11:22:17;101134.13;;;23.90
53667;BMP280;39568;51.026;5.468;2022-07-01T11:24:45;101129.72;;;23.56
53667;BMP280;39568;51.026;5.468;2022-07-01T11:27:12;101125.84;;;23.68
53667;BMP280;39568;51.026;5.468;2022-07-01T11:29:39;101117.13;;;23.41
53667;BMP280;39568;51.026;5.468;2022-07-01T11:32:06;101134.22;;;21.33
53667;BMP280;39568;51.026;5.468;2022-07-01T11:34:35;101126.91;;;21.18
53667;BMP280;39568;51.026;5.468;2022-07-01T11:37:09;101129.66;;;21.35
53667;BMP280;39568;51.026;5.468;2022-07-01T11:40:05;101135.25;;;21.79
53667;BMP280;39568;51.026;5.468;2022-07-01T11:45:22;101149.97;;;22.90
53667;BMP280;39568;51.026;5.468;2022-07-01T11:47:50;101138.00;;;22.66
53667;BMP280;39568;51.026;5.468;2022-07-01T11:50:17;101125.38;;;22.52
53667;BMP280;39568;51.026;5.468;2022-07-01T11:52:45;101121.19;;;22.77
53667;BMP280;39568;51.026;5.468;2022-07-01T11:55:13;101130.34;;;22.46
53667;BMP280;39568;51.026;5.468;2022-07-01T11:57:44;101136.72;;;21.14
53667;BMP280;39568;51.026;5.468;2022-07-01T12:00:12;101113.63;;;22.06
53667;BMP280;39568;51.026;5.468;2022-07-01T12:02:39;101132.03;;;22.24
53667;BMP280;39568;51.026;5.468;2022-07-01T12:05:06;101134.38;;;21.76
53667;BMP280;39568;51.026;5.468;2022-07-01T12:07:33;101131.63;;;21.18
53667;BMP280;39568;51.026;5.468;2022-07-01T12:10:00;101132.78;;;21.73
53667;BMP280;39568;51.026;5.468;2022-07-01T12:12:29;101125.53;;;22.10
53667;BMP280;39568;51.026;5.468;2022-07-01T12:14:57;101139.16;;;21.44
53667;BMP280;39568;51.026;5.468;2022-07-01T12:17:26;101140.97;;;21.66
53667;BMP280;39568;51.026;5.468;2022-07-01T12:19:54;101131.00;;;21.27
53667;BMP280;39568;51.026;5.468;2022-07-01T12:22:24;101142.78;;;21.22
53667;BMP280;39568;51.026;5.468;2022-07-01T12:25:04;101152.25;;;20.73
53667;BMP280;39568;51.026;5.468;2022-07-01T12:27:34;101154.81;;;21.53
53667;BMP280;39568;51.026;5.468;2022-07-01T12:30:05;101146.59;;;22.72
53667;BMP280;39568;51.026;5.468;2022-07-01T12:32:37;101141.28;;;22.65
53667;BMP280;39568;51.026;5.468;2022-07-01T12:35:05;101155.56;;;22.22
53667;BMP280;39568;51.026;5.468;2022-07-01T12:37:53;101149.44;;;22.65
53667;BMP280;39568;51.026;5.468;2022-07-01T12:40:22;101138.78;;;23.13
53667;BMP280;39568;51.026;5.468;2022-07-01T12:42:50;101148.72;;;23.56
53667;BMP280;39568;51.026;5.468;2022-07-01T12:45:22;101147.44;;;24.14
53667;BMP280;39568;51.026;5.468;2022-07-01T12:47:51;101140.13;;;24.07
53667;BMP280;39568;51.026;5.468;2022-07-01T12:50:25;101136.00;;;23.87
53667;BMP280;39568;51.026;5.468;2022-07-01T12:52:59;101142.75;;;23.96
53667;BMP280;39568;51.026;5.468;2022-07-01T12:55:28;101146.31;;;24.57
53667;BMP280;39568;51.026;5.468;2022-07-01T12:57:59;101134.84;;;24.68
53667;BMP280;39568;51.026;5.468;2022-07-01T13:00:26;101144.38;;;24.39
53667;BMP280;39568;51.026;5.468;2022-07-01T13:02:55;101146.13;;;25.05
53667;BMP280;39568;51.026;5.468;2022-07-01T13:05:22;101149.13;;;24.38
53667;BMP280;39568;51.026;5.468;2022-07-01T13:07:49;101125.06;;;24.25
53667;BMP280;39568;51.026;5.468;2022-07-01T13:10:17;101143.88;;;23.73
53667;BMP280;39568;51.026;5.468;2022-07-01T13:12:45;101145.34;;;24.43
53667;BMP280;39568;51.026;5.468;2022-07-01T13:15:14;101148.28;;;24.26
53667;BMP280;39568;51.026;5.468;2022-07-01T13:17:41;101143.66;;;25.30
53667;BMP280;39568;51.026;5.468;2022-07-01T13:20:10;101145.88;;;25.76
53667;BMP280;39568;51.026;5.468;2022-07-01T13:22:40;101148.53;;;25.64
53667;BMP280;39568;51.026;5.468;2022-07-01T13:25:08;101158.50;;;25.93
53667;BMP280;39568;51.026;5.468;2022-07-01T13:27:36;101128.81;;;26.31
53667;BMP280;39568;51.026;5.468;2022-07-01T13:30:05;101159.16;;;25.49
53667;BMP280;39568;51.026;5.468;2022-07-01T13:32:35;101184.78;;;25.13
53667;BMP280;39568;51.026;5.468;2022-07-01T13:35:02;101158.84;;;24.41
53667;BMP280;39568;51.026;5.468;2022-07-01T13:37:29;101166.22;;;23.17
53667;BMP280;39568;51.026;5.468;2022-07-01T13:39:57;101159.16;;;24.76
53667;BMP280;39568;51.026;5.468;2022-07-01T13:42:23;101179.31;;;24.83
53667;BMP280;39568;51.026;5.468;2022-07-01T13:44:53;101170.16;;;24.38
53667;BMP280;39568;51.026;5.468;2022-07-01T13:47:23;101168.78;;;24.98
53667;BMP280;39568;51.026;5.468;2022-07-01T13:49:51;101163.09;;;24.54
53667;BMP280;39568;51.026;5.468;2022-07-01T13:52:18;101168.31;;;24.21
53667;BMP280;39568;51.026;5.468;2022-07-01T13:54:45;101177.63;;;23.80
53667;BMP280;39568;51.026;5.468;2022-07-01T13:57:12;101180.47;;;24.30
53667;BMP280;39568;51.026;5.468;2022-07-01T13:59:38;101174.81;;;24.66
53667;BMP280;39568;51.026;5.468;2022-07-01T14:02:05;101172.53;;;25.24
53667;BMP280;39568;51.026;5.468;2022-07-01T14:04:32;101177.00;;;24.89
53667;BMP280;39568;51.026;5.468;2022-07-01T14:07:02;101183.44;;;24.93
53667;BMP280;39568;51.026;5.468;2022-07-01T14:09:31;101170.84;;;25.61
53667;BMP280;39568;51.026;5.468;2022-07-01T14:11:58;101173.63;;;25.51
53667;BMP280;39568;51.026;5.468;2022-07-01T14:14:25;101172.81;;;25.81